sensor_id;sensor_type;location;lat;lon;timestamp;temperature;humidity
30893;DHT22;17595;50.884;4.346;2022-10-16T00:01:41;17.20;99.90
30893;DHT22;17595;50.884;4.346;2022-10-16T00:04:08;17.20;99.90
30893;DHT22;17595;50.884;4.346;2022-10-16T00:06:33;17.20;99.90
30893;DHT22;17595;50.884;4.346;2022-10-16T00:08:59;17.10;99.90
30893;DHT22;17595;50.884;4.346;2022-10-16T00:11:32;17.10;99.90
30893;DHT22;17595;50.884;4.346;2022-10-16T00:14:08;17.10;99.90
30893;DHT22;17595;50.884;4.346;2022-10-16T00:16:34;17.10;99.90
30893;DHT22;17595;50.884;4.346;2022-10-16T00:19:00;17.10;99.90
30893;DHT22;17595;50.884;4.346;2022-10-16T00:21:27;17.10;99.90
30893;DHT22;17595;50.884;4.346;2022-10-16T00:23:54;17.30;99.90
30893;DHT22;17595;50.884;4.346;2022-10-16T00:26:19;17.10;99.90
30893;DHT22;17595;50.884;4.346;2022-10-16T00:28:46;17.10;99.90
30893;DHT22;17595;50.884;4.346;2022-10-16T00:31:12;17.10;99.90
30893;DHT22;17595;50.884;4.346;2022-10-16T00:33:38;17.00;99.90
30893;DHT22;17595;50.884;4.346;2022-10-16T00:36:04;17.00;99.90
30893;DHT22;17595;50.884;4.346;2022-10-16T00:38:30;17.00;99.90
30893;DHT22;17595;50.884;4.346;2022-10-16T00:40:56;17.00;99.90
30893;DHT22;17595;50.884;4.346;2022-10-16T00:43:39;17.00;99.90
30893;DHT22;17595;50.884;4.346;2022-10-16T00:46:10;17.10;99.90
30893;DHT22;17595;50.884;4.346;2022-10-16T00:48:37;17.00;99.90
30893;DHT22;17595;50.884;4.346;2022-10-16T00:51:03;17.00;99.90
30893;DHT22;17595;50.884;4.346;2022-10-16T00:53:29;17.00;99.90
30893;DHT22;17595;50.884;4.346;2022-10-16T00:55:55;17.00;99.90
30893;DHT22;17595;50.884;4.346;2022-10-16T00:58:21;17.00;99.90
30893;DHT22;17595;50.884;4.346;2022-10-16T01:00:46;17.00;99.90
30893;DHT22;17595;50.884;4.346;2022-10-16T01:03:22;17.00;99.90
30893;DHT22;17595;50.884;4.346;2022-10-16T01:08:29;17.10;99.90
30893;DHT22;17595;50.884;4.346;2022-10-16T01:11:11;17.10;99.90
30893;DHT22;17595;50.884;4.346;2022-10-16T01:13:42;17.10;99.90
30893;DHT22;17595;50.884;4.346;2022-10-16T01:16:13;17.00;99.90
30893;DHT22;17595;50.884;4.346;2022-10-16T01:18:45;17.00;99.90
30893;DHT22;17595;50.884;4.346;2022-10-16T01:21:28;16.90;99.90
30893;DHT22;17595;50.884;4.346;2022-10-16T01:29:13;16.80;99.90
30893;DHT22;17595;50.884;4.346;2022-10-16T01:31:41;16.70;99.90
30893;DHT22;17595;50.884;4.346;2022-10-16T01:34:10;16.80;99.90
30893;DHT22;17595;50.884;4.346;2022-10-16T01:36:47;16.70;99.90
30893;DHT22;17595;50.884;4.346;2022-10-16T01:39:14;16.80;99.90
30893;DHT22;17595;50.884;4.346;2022-10-16T01:41:45;16.80;99.90
30893;DHT22;17595;50.884;4.346;2022-10-16T01:44:22;16.80;99.90
30893;DHT22;17595;50.884;4.346;2022-10-16T01:46:48;16.70;99.90
30893;DHT22;17595;50.884;4.346;2022-10-16T01:49:15;16.70;99.90
30893;DHT22;17595;50.884;4.346;2022-10-16T01:51:41;16.70;99.90
30893;DHT22;17595;50.884;4.346;2022-10-16T01:54:09;16.70;99.90
30893;DHT22;17595;50.884;4.346;2022-10-16T01:56:36;16.70;99.90
30893;DHT22;17595;50.884;4.346;2022-10-16T02:01:29;16.80;99.90
30893;DHT22;17595;50.884;4.346;2022-10-16T02:03:56;16.80;99.90
30893;DHT22;17595;50.884;4.346;2022-10-16T02:06:24;16.80;99.90
30893;DHT22;17595;50.884;4.346;2022-10-16T02:08:50;16.80;99.90
30893;DHT22;17595;50.884;4.346;2022-10-16T02:11:15;16.80;99.90
30893;DHT22;17595;50.884;4.346;2022-10-16T02:13:42;16.80;99.90
30893;DHT22;17595;50.884;4.346;2022-10-16T02:16:11;16.80;99.90
30893;DHT22;17595;50.884;4.346;2022-10-16T02:18:36;16.80;99.90
30893;DHT22;17595;50.884;4.346;2022-10-16T02:21:06;16.80;99.90
30893;DHT22;17595;50.884;4.346;2022-10-16T02:26:10;16.70;99.90
30893;DHT22;17595;50.884;4.346;2022-10-16T02:28:42;16.70;99.90
30893;DHT22;17595;50.884;4.346;2022-10-16T02:31:10;16.70;99.90
30893;DHT22;17595;50.884;4.346;2022-10-16T02:33:36;16.80;99.90
30893;DHT22;17595;50.884;4.346;2022-10-16T02:36:03;16.70;99.90
30893;DHT22;17595;50.884;4.346;2022-10-16T02:38:29;16.70;99.90
30893;DHT22;17595;50.884;4.346;2022-10-16T02:40:55;16.80;99.90
30893;DHT22;17595;50.884;4.346;2022-10-16T02:43:21;16.80;99.90
30893;DHT22;17595;50.884;4.346;2022-10-16T02:45:46;16.70;99.90
30893;DHT22;17595;50.884;4.346;2022-10-16T02:48:12;16.80;99.90
30893;DHT22;17595;50.884;4.346;2022-10-16T02:50:37;16.80;99.90
30893;DHT22;17595;50.884;4.346;2022-10-16T02:53:03;16.70;99.90
30893;DHT22;17595;50.884;4.346;2022-10-16T02:55:29;16.70;99.90
30893;DHT22;17595;50.884;4.346;2022-10-16T02:57:54;16.70;99.90
30893;DHT22;17595;50.884;4.346;2022-10-16T03:00:20;16.70;99.90
30893;DHT22;17595;50.884;4.346;2022-10-16T03:02:45;16.70;99.90
30893;DHT22;17595;50.884;4.346;2022-10-16T03:05:12;16.70;99.90
30893;DHT22;17595;50.884;4.346;2022-10-16T03:07:38;16.70;99.90
30893;DHT22;17595;50.884;4.346;2022-10-16T03:10:04;16.70;99.90
30893;DHT22;17595;50.884;4.346;2022-10-16T03:12:29;16.70;99.90
30893;DHT22;17595;50.884;4.346;2022-10-16T03:14:55;16.70;99.90
30893;DHT22;17595;50.884;4.346;2022-10-16T03:17:22;16.70;99.90
30893;DHT22;17595;50.884;4.346;2022-10-16T03:19:47;16.70;99.90
30893;DHT22;17595;50.884;4.346;2022-10-16T03:22:13;16.80;99.90
30893;DHT22;17595;50.884;4.346;2022-10-16T03:24:38;16.70;99.90
30893;DHT22;17595;50.884;4.346;2022-10-16T03:27:04;16.70;99.90
30893;DHT22;17595;50.884;4.346;2022-10-16T03:29:29;16.70;99.90
30893;DHT22;17595;50.884;4.346;2022-10-16T03:34:21;16.90;99.90
30893;DHT22;17595;50.884;4.346;2022-10-16T03:36:47;16.90;99.90
30893;DHT22;17595;50.884;4.346;2022-10-16T03:39:13;16.90;99.90
30893;DHT22;17595;50.884;4.346;2022-10-16T03:41:38;16.90;99.90
30893;DHT22;17595;50.884;4.346;2022-10-16T03:44:04;16.80;99.90
30893;DHT22;17595;50.884;4.346;2022-10-16T03:46:29;16.80;99.90
30893;DHT22;17595;50.884;4.346;2022-10-16T03:48:55;16.80;99.90
30893;DHT22;17595;50.884;4.346;2022-10-16T03:51:20;16.80;99.90
30893;DHT22;17595;50.884;4.346;2022-10-16T03:56:12;16.70;99.90
30893;DHT22;17595;50.884;4.346;2022-10-16T03:58:37;16.70;99.90
30893;DHT22;17595;50.884;4.346;2022-10-16T04:01:03;16.70;99.90
30893;DHT22;17595;50.884;4.346;2022-10-16T04:03:28;16.70;99.90
30893;DHT22;17595;50.884;4.346;2022-10-16T04:08:20;16.60;99.90
30893;DHT22;17595;50.884;4.346;2022-10-16T04:10:46;16.60;99.90
30893;DHT22;17595;50.884;4.346;2022-10-16T04:13:11;16.50;99.90
30893;DHT22;17595;50.884;4.346;2022-10-16T04:15:37;16.50;99.90
30893;DHT22;17595;50.884;4.346;2022-10-16T04:18:03;16.50;99.90
30893;DHT22;17595;50.884;4.346;2022-10-16T04:22:55;16.50;99.90
30893;DHT22;17595;50.884;4.346;2022-10-16T04:25:21;16.50;99.90
30893;DHT22;17595;50.884;4.346;2022-10-16T04:27:46;16.50;99.90
30893;DHT22;17595;50.884;4.346;2022-10-16T04:30:12;16.60;99.90
30893;DHT22;17595;50.884;4.346;2022-10-16T04:32:37;16.60;99.90
30893;DHT22;17595;50.884;4.346;2022-10-16T04:35:03;16.60;99.90
30893;DHT22;17595;50.884;4.346;2022-10-16T04:37:28;16.50;99.90
30893;DHT22;17595;50.884;4.346;2022-10-16T04:39:54;16.50;99.90
30893;DHT22;17595;50.884;4.346;2022-10-16T04:42:20;16.50;99.90
30893;DHT22;17595;50.884;4.346;2022-10-16T04:44:45;16.50;99.90
30893;DHT22;17595;50.884;4.346;2022-10-16T04:47:11;16.50;99.90
30893;DHT22;17595;50.884;4.346;2022-10-16T04:49:36;16.60;99.90
30893;DHT22;17595;50.884;4.346;2022-10-16T04:52:02;16.60;99.90
30893;DHT22;17595;50.884;4.346;2022-10-16T04:54:28;16.50;99.90
30893;DHT22;17595;50.884;4.346;2022-10-16T04:56:53;16.60;99.90
30893;DHT22;17595;50.884;4.346;2022-10-16T04:59:20;16.40;99.90
30893;DHT22;17595;50.884;4.346;2022-10-16T05:01:46;16.40;99.90
30893;DHT22;17595;50.884;4.346;2022-10-16T05:04:11;16.40;99.90
30893;DHT22;17595;50.884;4.346;2022-10-16T05:06:37;16.40;99.90
30893;DHT22;17595;50.884;4.346;2022-10-16T05:09:04;16.40;99.90
30893;DHT22;17595;50.884;4.346;2022-10-16T05:11:30;16.40;99.90
30893;DHT22;17595;50.884;4.346;2022-10-16T05:13:55;16.50;99.90
30893;DHT22;17595;50.884;4.346;2022-10-16T05:16:21;16.40;99.90
30893;DHT22;17595;50.884;4.346;2022-10-16T05:18:46;16.40;99.90
30893;DHT22;17595;50.884;4.346;2022-10-16T05:21:12;16.40;99.90
30893;DHT22;17595;50.884;4.346;2022-10-16T05:23:37;16.40;99.90
30893;DHT22;17595;50.884;4.346;2022-10-16T05:26:03;16.40;99.90
30893;DHT22;17595;50.884;4.346;2022-10-16T05:28:29;16.40;99.90
30893;DHT22;17595;50.884;4.346;2022-10-16T05:30:55;16.40;99.90
30893;DHT22;17595;50.884;4.346;2022-10-16T05:33:22;16.40;99.90
30893;DHT22;17595;50.884;4.346;2022-10-16T05:35:47;16.30;99.90
30893;DHT22;17595;50.884;4.346;2022-10-16T05:38:13;16.30;99.90
30893;DHT22;17595;50.884;4.346;2022-10-16T05:40:38;16.30;99.90
30893;DHT22;17595;50.884;4.346;2022-10-16T05:43:04;16.30;99.90
30893;DHT22;17595;50.884;4.346;2022-10-16T05:45:30;16.20;99.90
30893;DHT22;17595;50.884;4.346;2022-10-16T05:47:55;16.20;99.90
30893;DHT22;17595;50.884;4.346;2022-10-16T05:50:21;16.20;99.90
30893;DHT22;17595;50.884;4.346;2022-10-16T05:52:46;16.20;99.90
30893;DHT22;17595;50.884;4.346;2022-10-16T05:55:12;16.20;99.90
30893;DHT22;17595;50.884;4.346;2022-10-16T05:57:37;16.30;99.90
30893;DHT22;17595;50.884;4.346;2022-10-16T06:00:04;16.30;99.90
30893;DHT22;17595;50.884;4.346;2022-10-16T06:02:29;16.20;99.90
30893;DHT22;17595;50.884;4.346;2022-10-16T06:04:55;16.20;99.90
30893;DHT22;17595;50.884;4.346;2022-10-16T06:07:21;16.20;99.90
30893;DHT22;17595;50.884;4.346;2022-10-16T06:09:50;16.10;99.90
30893;DHT22;17595;50.884;4.346;2022-10-16T06:12:16;16.10;99.90
30893;DHT22;17595;50.884;4.346;2022-10-16T06:14:42;16.20;99.90
30893;DHT22;17595;50.884;4.346;2022-10-16T06:17:07;16.20;99.90
30893;DHT22;17595;50.884;4.346;2022-10-16T06:19:33;16.20;99.90
30893;DHT22;17595;50.884;4.346;2022-10-16T06:21:58;16.20;99.90
30893;DHT22;17595;50.884;4.346;2022-10-16T06:24:24;16.30;99.90
30893;DHT22;17595;50.884;4.346;2022-10-16T06:26:50;16.40;99.90
30893;DHT22;17595;50.884;4.346;2022-10-16T06:29:16;16.50;99.90
30893;DHT22;17595;50.884;4.346;2022-10-16T06:31:41;16.50;99.90
30893;DHT22;17595;50.884;4.346;2022-10-16T06:34:10;16.50;99.90
30893;DHT22;17595;50.884;4.346;2022-10-16T06:36:37;16.60;99.90
30893;DHT22;17595;50.884;4.346;2022-10-16T06:39:03;16.50;99.90
30893;DHT22;17595;50.884;4.346;2022-10-16T06:41:29;16.50;99.90
30893;DHT22;17595;50.884;4.346;2022-10-16T06:43:57;16.50;99.90
30893;DHT22;17595;50.884;4.346;2022-10-16T06:46:23;16.70;99.90
30893;DHT22;17595;50.884;4.346;2022-10-16T06:48:49;16.30;99.90
30893;DHT22;17595;50.884;4.346;2022-10-16T06:51:16;16.40;99.90
30893;DHT22;17595;50.884;4.346;2022-10-16T06:53:43;16.40;99.90
30893;DHT22;17595;50.884;4.346;2022-10-16T06:56:10;16.50;99.90
30893;DHT22;17595;50.884;4.346;2022-10-16T06:58:36;16.60;99.90
30893;DHT22;17595;50.884;4.346;2022-10-16T07:01:01;16.60;99.90
30893;DHT22;17595;50.884;4.346;2022-10-16T07:03:27;16.60;99.90
30893;DHT22;17595;50.884;4.346;2022-10-16T07:05:52;16.70;99.90
30893;DHT22;17595;50.884;4.346;2022-10-16T07:08:18;16.70;99.90
30893;DHT22;17595;50.884;4.346;2022-10-16T07:10:43;16.70;99.90
30893;DHT22;17595;50.884;4.346;2022-10-16T07:13:09;17.10;99.90
30893;DHT22;17595;50.884;4.346;2022-10-16T07:15:38;16.70;99.90
30893;DHT22;17595;50.884;4.346;2022-10-16T07:18:03;16.80;99.90
30893;DHT22;17595;50.884;4.346;2022-10-16T07:20:29;16.70;99.90
30893;DHT22;17595;50.884;4.346;2022-10-16T07:22:54;17.10;99.90
30893;DHT22;17595;50.884;4.346;2022-10-16T07:25:20;16.70;99.90
30893;DHT22;17595;50.884;4.346;2022-10-16T07:27:45;16.80;99.90
30893;DHT22;17595;50.884;4.346;2022-10-16T07:30:11;16.80;99.90
30893;DHT22;17595;50.884;4.346;2022-10-16T07:32:36;16.80;99.90
30893;DHT22;17595;50.884;4.346;2022-10-16T07:35:02;17.00;99.90
30893;DHT22;17595;50.884;4.346;2022-10-16T07:37:27;16.60;99.90
30893;DHT22;17595;50.884;4.346;2022-10-16T07:39:53;17.90;99.90
30893;DHT22;17595;50.884;4.346;2022-10-16T07:42:18;16.80;99.90
30893;DHT22;17595;50.884;4.346;2022-10-16T07:44:45;19.00;99.90
30893;DHT22;17595;50.884;4.346;2022-10-16T07:47:10;16.80;99.90
30893;DHT22;17595;50.884;4.346;2022-10-16T07:49:36;16.80;99.90
30893;DHT22;17595;50.884;4.346;2022-10-16T07:52:01;16.80;99.90
30893;DHT22;17595;50.884;4.346;2022-10-16T07:54:27;16.90;99.90
30893;DHT22;17595;50.884;4.346;2022-10-16T07:56:52;16.80;99.90
30893;DHT22;17595;50.884;4.346;2022-10-16T07:59:18;16.90;99.90
30893;DHT22;17595;50.884;4.346;2022-10-16T08:01:43;17.00;99.90
30893;DHT22;17595;50.884;4.346;2022-10-16T08:04:09;17.10;99.90
30893;DHT22;17595;50.884;4.346;2022-10-16T08:06:35;17.10;99.90
30893;DHT22;17595;50.884;4.346;2022-10-16T08:09:01;17.00;99.90
30893;DHT22;17595;50.884;4.346;2022-10-16T08:11:26;17.00;99.90
30893;DHT22;17595;50.884;4.346;2022-10-16T08:13:52;17.00;99.90
30893;DHT22;17595;50.884;4.346;2022-10-16T08:16:17;17.10;99.90
30893;DHT22;17595;50.884;4.346;2022-10-16T08:18:43;17.10;99.90
30893;DHT22;17595;50.884;4.346;2022-10-16T08:21:12;17.00;99.90
30893;DHT22;17595;50.884;4.346;2022-10-16T08:23:37;18.20;99.90
30893;DHT22;17595;50.884;4.346;2022-10-16T08:26:06;18.30;99.90
30893;DHT22;17595;50.884;4.346;2022-10-16T08:28:32;17.20;99.90
30893;DHT22;17595;50.884;4.346;2022-10-16T08:31:10;19.40;99.90
30893;DHT22;17595;50.884;4.346;2022-10-16T08:33:38;17.30;99.90
30893;DHT22;17595;50.884;4.346;2022-10-16T08:36:04;17.30;99.90
30893;DHT22;17595;50.884;4.346;2022-10-16T08:38:30;17.30;99.90
30893;DHT22;17595;50.884;4.346;2022-10-16T08:41:10;17.30;99.90
30893;DHT22;17595;50.884;4.346;2022-10-16T08:43:43;17.30;99.90
30893;DHT22;17595;50.884;4.346;2022-10-16T08:48:47;17.20;99.90
30893;DHT22;17595;50.884;4.346;2022-10-16T08:51:23;17.30;99.90
30893;DHT22;17595;50.884;4.346;2022-10-16T08:53:51;17.20;99.90
30893;DHT22;17595;50.884;4.346;2022-10-16T08:56:18;18.50;99.90
30893;DHT22;17595;50.884;4.346;2022-10-16T08:58:44;19.80;99.90
30893;DHT22;17595;50.884;4.346;2022-10-16T09:01:12;17.40;99.90
30893;DHT22;17595;50.884;4.346;2022-10-16T09:08:39;17.60;99.90
30893;DHT22;17595;50.884;4.346;2022-10-16T09:13:50;17.70;99.90
30893;DHT22;17595;50.884;4.346;2022-10-16T09:16:22;17.40;99.90
30893;DHT22;17595;50.884;4.346;2022-10-16T09:21:21;17.60;99.90
30893;DHT22;17595;50.884;4.346;2022-10-16T09:23:48;17.60;99.90
30893;DHT22;17595;50.884;4.346;2022-10-16T09:26:14;17.70;99.90
30893;DHT22;17595;50.884;4.346;2022-10-16T09:28:41;17.80;99.90
30893;DHT22;17595;50.884;4.346;2022-10-16T09:31:17;18.80;99.90
30893;DHT22;17595;50.884;4.346;2022-10-16T09:33:43;18.00;99.90
30893;DHT22;17595;50.884;4.346;2022-10-16T09:36:09;19.30;99.90
30893;DHT22;17595;50.884;4.346;2022-10-16T09:38:36;18.10;99.90
30893;DHT22;17595;50.884;4.346;2022-10-16T09:41:02;18.10;99.90
30893;DHT22;17595;50.884;4.346;2022-10-16T09:46:00;18.10;99.90
30893;DHT22;17595;50.884;4.346;2022-10-16T09:48:59;18.20;99.90
30893;DHT22;17595;50.884;4.346;2022-10-16T09:51:28;18.20;99.90
30893;DHT22;17595;50.884;4.346;2022-10-16T09:53:55;18.30;99.90
30893;DHT22;17595;50.884;4.346;2022-10-16T09:56:22;18.20;99.90
30893;DHT22;17595;50.884;4.346;2022-10-16T09:58:52;18.20;99.90
30893;DHT22;17595;50.884;4.346;2022-10-16T10:01:17;17.80;99.90
30893;DHT22;17595;50.884;4.346;2022-10-16T10:03:44;17.90;99.90
30893;DHT22;17595;50.884;4.346;2022-10-16T10:08:52;17.80;99.90
30893;DHT22;17595;50.884;4.346;2022-10-16T10:11:18;17.90;99.90
30893;DHT22;17595;50.884;4.346;2022-10-16T10:13:43;18.00;99.90
30893;DHT22;17595;50.884;4.346;2022-10-16T10:16:09;18.20;99.90
30893;DHT22;17595;50.884;4.346;2022-10-16T10:18:34;18.30;99.90
30893;DHT22;17595;50.884;4.346;2022-10-16T10:21:00;18.30;99.90
30893;DHT22;17595;50.884;4.346;2022-10-16T10:23:26;18.50;99.90
30893;DHT22;17595;50.884;4.346;2022-10-16T10:26:04;18.40;99.90
30893;DHT22;17595;50.884;4.346;2022-10-16T10:28:40;18.40;99.90
30893;DHT22;17595;50.884;4.346;2022-10-16T10:33:41;18.50;99.90
30893;DHT22;17595;50.884;4.346;2022-10-16T10:36:12;18.70;99.90
30893;DHT22;17595;50.884;4.346;2022-10-16T10:38:58;19.10;99.90
30893;DHT22;17595;50.884;4.346;2022-10-16T10:56:50;19.40;99.90
30893;DHT22;17595;50.884;4.346;2022-10-16T11:02:21;19.40;99.90
30893;DHT22;17595;50.884;4.346;2022-10-16T11:07:17;19.30;99.90
30893;DHT22;17595;50.884;4.346;2022-10-16T11:09:44;19.10;99.90
30893;DHT22;17595;50.884;4.346;2022-10-16T11:12:14;19.50;99.90
30893;DHT22;17595;50.884;4.346;2022-10-16T11:14:46;18.90;99.90
30893;DHT22;17595;50.884;4.346;2022-10-16T11:17:18;19.00;99.90
30893;DHT22;17595;50.884;4.346;2022-10-16T11:19:46;19.20;99.90
30893;DHT22;17595;50.884;4.346;2022-10-16T11:22:22;19.30;99.90
30893;DHT22;17595;50.884;4.346;2022-10-16T11:27:43;19.40;99.90
30893;DHT22;17595;50.884;4.346;2022-10-16T11:30:18;19.40;99.90
30893;DHT22;17595;50.884;4.346;2022-10-16T11:32:50;19.10;99.90
30893;DHT22;17595;50.884;4.346;2022-10-16T11:35:32;19.00;99.90
30893;DHT22;17595;50.884;4.346;2022-10-16T11:38:01;19.20;99.90
30893;DHT22;17595;50.884;4.346;2022-10-16T11:40:28;19.40;99.90
30893;DHT22;17595;50.884;4.346;2022-10-16T11:43:02;19.50;99.90
30893;DHT22;17595;50.884;4.346;2022-10-16T11:45:40;19.70;99.90
30893;DHT22;17595;50.884;4.346;2022-10-16T11:50:43;19.80;99.90
30893;DHT22;17595;50.884;4.346;2022-10-16T11:53:32;19.80;99.90
30893;DHT22;17595;50.884;4.346;2022-10-16T11:56:00;19.80;99.90
30893;DHT22;17595;50.884;4.346;2022-10-16T12:00:54;19.90;99.90
30893;DHT22;17595;50.884;4.346;2022-10-16T12:03:25;19.90;99.90
30893;DHT22;17595;50.884;4.346;2022-10-16T12:08:23;19.80;99.90
30893;DHT22;17595;50.884;4.346;2022-10-16T12:10:49;19.90;99.90
30893;DHT22;17595;50.884;4.346;2022-10-16T12:18:36;20.30;99.90
30893;DHT22;17595;50.884;4.346;2022-10-16T12:21:02;20.00;99.90
30893;DHT22;17595;50.884;4.346;2022-10-16T12:23:32;19.80;99.90
30893;DHT22;17595;50.884;4.346;2022-10-16T12:25:59;19.90;99.90
30893;DHT22;17595;50.884;4.346;2022-10-16T12:28:28;20.00;99.90
30893;DHT22;17595;50.884;4.346;2022-10-16T12:33:26;20.00;99.90
30893;DHT22;17595;50.884;4.346;2022-10-16T12:35:52;20.10;99.90
30893;DHT22;17595;50.884;4.346;2022-10-16T12:38:29;20.10;99.90
30893;DHT22;17595;50.884;4.346;2022-10-16T12:43:24;22.30;99.90
30893;DHT22;17595;50.884;4.346;2022-10-16T12:45:58;20.80;99.90
30893;DHT22;17595;50.884;4.346;2022-10-16T12:48:24;20.90;99.90
30893;DHT22;17595;50.884;4.346;2022-10-16T12:50:50;21.00;99.90
30893;DHT22;17595;50.884;4.346;2022-10-16T12:53:22;21.20;99.90
30893;DHT22;17595;50.884;4.346;2022-10-16T12:56:01;21.20;99.90
30893;DHT22;17595;50.884;4.346;2022-10-16T12:58:47;21.20;99.90
30893;DHT22;17595;50.884;4.346;2022-10-16T13:01:41;21.20;99.90
30893;DHT22;17595;50.884;4.346;2022-10-16T13:06:57;21.50;99.90
30893;DHT22;17595;50.884;4.346;2022-10-16T13:09:43;21.70;99.90
30893;DHT22;17595;50.884;4.346;2022-10-16T13:22:43;21.60;99.90
30893;DHT22;17595;50.884;4.346;2022-10-16T13:25:18;21.50;99.90
30893;DHT22;17595;50.884;4.346;2022-10-16T13:27:59;21.50;99.90
30893;DHT22;17595;50.884;4.346;2022-10-16T13:30:25;21.50;99.90
30893;DHT22;17595;50.884;4.346;2022-10-16T13:33:37;21.50;99.90
30893;DHT22;17595;50.884;4.346;2022-10-16T13:35:37;21.60;99.90
30893;DHT22;17595;50.884;4.346;2022-10-16T13:38:13;21.70;99.90
30893;DHT22;17595;50.884;4.346;2022-10-16T13:40:55;21.80;99.90
30893;DHT22;17595;50.884;4.346;2022-10-16T13:43:23;21.80;99.90
30893;DHT22;17595;50.884;4.346;2022-10-16T13:45:52;21.80;99.90
30893;DHT22;17595;50.884;4.346;2022-10-16T13:48:18;21.80;99.90
30893;DHT22;17595;50.884;4.346;2022-10-16T13:50:43;21.90;99.90
30893;DHT22;17595;50.884;4.346;2022-10-16T13:53:12;21.60;99.90
30893;DHT22;17595;50.884;4.346;2022-10-16T13:55:38;21.60;99.90
30893;DHT22;17595;50.884;4.346;2022-10-16T13:58:04;21.60;99.90
30893;DHT22;17595;50.884;4.346;2022-10-16T14:00:30;21.50;99.90
30893;DHT22;17595;50.884;4.346;2022-10-16T14:02:58;21.40;99.90
30893;DHT22;17595;50.884;4.346;2022-10-16T14:05:26;21.40;99.90
30893;DHT22;17595;50.884;4.346;2022-10-16T14:07:51;21.30;99.90
30893;DHT22;17595;50.884;4.346;2022-10-16T14:10:19;21.30;99.90
30893;DHT22;17595;50.884;4.346;2022-10-16T14:12:45;21.30;99.90
30893;DHT22;17595;50.884;4.346;2022-10-16T14:15:19;21.30;99.90
30893;DHT22;17595;50.884;4.346;2022-10-16T14:17:45;21.20;99.90
30893;DHT22;17595;50.884;4.346;2022-10-16T14:20:12;21.30;99.90
30893;DHT22;17595;50.884;4.346;2022-10-16T14:22:40;21.40;99.90
30893;DHT22;17595;50.884;4.346;2022-10-16T14:27:43;21.50;99.90
30893;DHT22;17595;50.884;4.346;2022-10-16T14:32:39;21.50;99.90
30893;DHT22;17595;50.884;4.346;2022-10-16T14:35:11;21.50;99.90
30893;DHT22;17595;50.884;4.346;2022-10-16T14:37:50;21.40;99.90
30893;DHT22;17595;50.884;4.346;2022-10-16T14:40:16;21.30;99.90
30893;DHT22;17595;50.884;4.346;2022-10-16T14:42:42;21.20;99.90
30893;DHT22;17595;50.884;4.346;2022-10-16T14:45:08;20.80;99.90
30893;DHT22;17595;50.884;4.346;2022-10-16T14:47:35;21.20;99.90
30893;DHT22;17595;50.884;4.346;2022-10-16T14:50:02;21.20;99.90
30893;DHT22;17595;50.884;4.346;2022-10-16T14:52:27;21.20;99.90
30893;DHT22;17595;50.884;4.346;2022-10-16T14:54:53;21.10;99.90
30893;DHT22;17595;50.884;4.346;2022-10-16T14:57:20;21.20;99.90
30893;DHT22;17595;50.884;4.346;2022-10-16T14:59:47;21.30;99.90
30893;DHT22;17595;50.884;4.346;2022-10-16T15:04:48;21.30;99.90
30893;DHT22;17595;50.884;4.346;2022-10-16T15:07:13;21.20;99.90
30893;DHT22;17595;50.884;4.346;2022-10-16T15:09:39;21.10;99.90
30893;DHT22;17595;50.884;4.346;2022-10-16T15:12:04;21.10;99.90
30893;DHT22;17595;50.884;4.346;2022-10-16T15:14:30;21.20;99.90
30893;DHT22;17595;50.884;4.346;2022-10-16T15:16:55;21.30;99.90
30893;DHT22;17595;50.884;4.346;2022-10-16T15:19:21;21.30;99.90
30893;DHT22;17595;50.884;4.346;2022-10-16T15:21:46;21.30;99.90
30893;DHT22;17595;50.884;4.346;2022-10-16T15:24:12;21.20;99.90
30893;DHT22;17595;50.884;4.346;2022-10-16T15:26:39;21.00;99.90
30893;DHT22;17595;50.884;4.346;2022-10-16T15:29:05;21.00;99.90
30893;DHT22;17595;50.884;4.346;2022-10-16T15:31:30;21.00;99.90
30893;DHT22;17595;50.884;4.346;2022-10-16T15:33:56;21.00;99.90
30893;DHT22;17595;50.884;4.346;2022-10-16T15:36:27;20.90;99.90
30893;DHT22;17595;50.884;4.346;2022-10-16T15:38:53;20.80;99.90
30893;DHT22;17595;50.884;4.346;2022-10-16T15:41:19;21.20;99.90
30893;DHT22;17595;50.884;4.346;2022-10-16T15:43:44;20.70;99.90
30893;DHT22;17595;50.884;4.346;2022-10-16T15:46:11;20.70;99.90
30893;DHT22;17595;50.884;4.346;2022-10-16T15:48:38;20.70;99.90
30893;DHT22;17595;50.884;4.346;2022-10-16T15:51:07;20.60;99.90
30893;DHT22;17595;50.884;4.346;2022-10-16T15:53:32;20.60;99.90
30893;DHT22;17595;50.884;4.346;2022-10-16T15:56:03;20.50;99.90
30893;DHT22;17595;50.884;4.346;2022-10-16T15:58:28;20.50;99.90
30893;DHT22;17595;50.884;4.346;2022-10-16T16:00:58;20.50;99.90
30893;DHT22;17595;50.884;4.346;2022-10-16T16:03:26;20.50;99.90
30893;DHT22;17595;50.884;4.346;2022-10-16T16:05:52;20.40;99.90
30893;DHT22;17595;50.884;4.346;2022-10-16T16:08:18;20.30;99.90
30893;DHT22;17595;50.884;4.346;2022-10-16T16:10:43;20.30;99.90
30893;DHT22;17595;50.884;4.346;2022-10-16T16:13:09;20.30;99.90
30893;DHT22;17595;50.884;4.346;2022-10-16T16:15:36;20.30;99.90
30893;DHT22;17595;50.884;4.346;2022-10-16T16:18:03;20.20;99.90
30893;DHT22;17595;50.884;4.346;2022-10-16T16:20:31;20.10;99.90
30893;DHT22;17595;50.884;4.346;2022-10-16T16:22:56;20.10;99.90
30893;DHT22;17595;50.884;4.346;2022-10-16T16:25:22;20.10;99.90
30893;DHT22;17595;50.884;4.346;2022-10-16T16:27:47;20.10;99.90
30893;DHT22;17595;50.884;4.346;2022-10-16T16:30:13;20.10;99.90
30893;DHT22;17595;50.884;4.346;2022-10-16T16:32:38;20.00;99.90
30893;DHT22;17595;50.884;4.346;2022-10-16T16:35:04;20.00;99.90
30893;DHT22;17595;50.884;4.346;2022-10-16T16:37:30;19.90;99.90
30893;DHT22;17595;50.884;4.346;2022-10-16T16:39:55;19.90;99.90
30893;DHT22;17595;50.884;4.346;2022-10-16T16:42:27;19.80;99.90
30893;DHT22;17595;50.884;4.346;2022-10-16T16:44:52;19.80;99.90
30893;DHT22;17595;50.884;4.346;2022-10-16T16:47:18;19.80;99.90
30893;DHT22;17595;50.884;4.346;2022-10-16T16:49:44;19.70;99.90
30893;DHT22;17595;50.884;4.346;2022-10-16T16:52:11;19.70;99.90
30893;DHT22;17595;50.884;4.346;2022-10-16T16:54:37;19.70;99.90
30893;DHT22;17595;50.884;4.346;2022-10-16T16:57:03;19.70;99.90
30893;DHT22;17595;50.884;4.346;2022-10-16T16:59:29;19.60;99.90
30893;DHT22;17595;50.884;4.346;2022-10-16T17:01:58;19.60;99.90
30893;DHT22;17595;50.884;4.346;2022-10-16T17:04:24;19.60;99.90
30893;DHT22;17595;50.884;4.346;2022-10-16T17:06:49;19.60;99.90
30893;DHT22;17595;50.884;4.346;2022-10-16T17:09:15;19.70;99.90
30893;DHT22;17595;50.884;4.346;2022-10-16T17:11:41;20.40;99.90
30893;DHT22;17595;50.884;4.346;2022-10-16T17:14:08;19.70;99.90
30893;DHT22;17595;50.884;4.346;2022-10-16T17:16:35;20.40;99.90
30893;DHT22;17595;50.884;4.346;2022-10-16T17:19:01;19.70;99.90